createdAt,value
2019-01-12T00:04:48.487Z,98957.95
2019-01-12T00:09:54.119Z,98949.98
2019-01-12T00:14:59.789Z,98952.69
2019-01-12T00:20:06.068Z,98952.08
2019-01-12T00:25:11.838Z,98949.17
2019-01-12T00:30:17.670Z,98950.55
2019-01-12T00:35:23.296Z,98959.25
2019-01-12T00:40:28.899Z,98968.33
2019-01-12T00:45:34.494Z,98958.05
2019-01-12T00:50:40.122Z,98980.97
2019-01-12T00:55:46.987Z,98993.95
2019-01-12T01:00:52.591Z,98996.72
2019-01-12T01:05:58.190Z,98994.36
2019-01-12T01:11:04.425Z,98996.70
2019-01-12T01:16:10.022Z,98999.00
2019-01-12T01:21:15.628Z,99004.45
2019-01-12T01:26:21.245Z,99006.32
2019-01-12T01:31:26.842Z,99010.42
2019-01-12T01:36:34.269Z,99010.02
2019-01-12T01:41:39.894Z,99014.78
2019-01-12T01:46:48.244Z,99032.56
2019-01-12T01:51:54.092Z,99029.98
2019-01-12T01:56:59.819Z,99035.04
2019-01-12T02:02:05.975Z,99043.40
2019-01-12T02:07:11.579Z,99036.17
2019-01-12T02:12:17.203Z,99040.83
2019-01-12T02:17:22.838Z,99042.25
2019-01-12T02:22:29.710Z,99036.08
2019-01-12T02:27:35.367Z,99036.16
2019-01-12T02:32:40.960Z,99040.29
2019-01-12T02:37:46.619Z,99038.48
2019-01-12T02:42:52.706Z,99034.37
2019-01-12T02:47:58.315Z,99033.59
2019-01-12T02:53:04.100Z,99041.28
2019-01-12T02:58:10.212Z,99049.09
2019-01-12T03:03:15.832Z,99051.48
2019-01-12T03:08:21.863Z,99046.99
2019-01-12T03:13:27.438Z,99043.02
2019-01-12T03:18:33.035Z,99043.80
2019-01-12T03:23:38.662Z,99044.53
2019-01-12T03:28:44.255Z,99040.45
2019-01-12T03:33:50.017Z,99035.03
2019-01-12T03:38:55.602Z,99039.28
2019-01-12T03:44:01.245Z,99037.39
2019-01-12T03:49:06.956Z,99042.80
2019-01-12T03:54:13.019Z,99042.08
2019-01-12T03:59:18.608Z,99037.70
2019-01-12T04:04:24.508Z,99037.48
2019-01-12T04:09:30.085Z,99028.74
2019-01-12T04:14:35.694Z,99037.57
2019-01-12T04:19:41.275Z,99025.22
2019-01-12T04:24:47.349Z,99025.71
2019-01-12T04:29:52.952Z,99026.37
2019-01-12T04:34:59.356Z,99018.00
2019-01-12T04:40:06.321Z,99020.96
2019-01-12T04:45:12.021Z,99020.20
2019-01-12T04:50:18.284Z,99029.25
2019-01-12T04:55:24.025Z,99015.80
2019-01-12T05:00:30.599Z,99023.03
2019-01-12T05:05:36.624Z,99015.05
2019-01-12T05:10:42.213Z,99023.70
2019-01-12T05:15:47.996Z,99015.16
2019-01-12T05:20:53.962Z,99021.82
2019-01-12T05:25:59.961Z,99022.67
2019-01-12T05:31:09.138Z,99024.66
2019-01-12T05:36:15.057Z,99023.16
2019-01-12T05:41:21.090Z,99027.19
2019-01-12T05:46:27.110Z,99024.56
2019-01-12T05:51:33.319Z,99030.52
2019-01-12T05:56:39.224Z,99030.48
2019-01-12T06:01:45.301Z,99022.38
2019-01-12T06:06:51.399Z,99035.23
2019-01-12T06:11:57.361Z,99038.75
2019-01-12T06:17:05.815Z,99046.41
2019-01-12T06:22:11.799Z,99051.41
2019-01-12T06:27:36.211Z,99049.58
2019-01-12T06:32:42.171Z,99047.07
2019-01-12T06:37:49.244Z,99047.89
2019-01-12T06:42:55.189Z,99050.02
2019-01-12T06:48:01.298Z,99049.66
2019-01-12T06:53:20.348Z,99057.86
2019-01-12T06:58:26.522Z,99055.45
2019-01-12T07:03:32.432Z,99063.23
2019-01-12T07:08:42.718Z,99050.78
2019-01-12T07:13:48.550Z,99054.50
2019-01-12T07:18:54.428Z,99058.02
2019-01-12T07:24:00.253Z,99047.09
2019-01-12T07:29:08.014Z,99072.45
2019-01-12T07:34:13.766Z,99072.75
2019-01-12T07:39:20.298Z,99080.48
2019-01-12T07:44:26.219Z,99079.30
2019-01-12T07:49:32.101Z,99083.52
2019-01-12T07:54:38.383Z,99080.17
2019-01-12T07:59:44.023Z,99088.00
2019-01-12T08:04:49.578Z,99086.65
2019-01-12T08:09:55.340Z,99086.16
2019-01-12T08:15:00.952Z,99079.59
2019-01-12T08:20:09.703Z,99078.37
2019-01-12T08:25:15.413Z,99062.13
2019-01-12T08:30:21.066Z,99069.70
2019-01-12T08:35:26.666Z,99067.52
2019-01-12T08:40:32.570Z,99065.91
2019-01-12T08:45:38.456Z,99063.82
2019-01-12T08:50:44.080Z,99060.50
2019-01-12T08:55:49.663Z,99060.78
2019-01-12T09:00:55.305Z,99050.41
2019-01-12T09:06:01.002Z,99049.50
2019-01-12T09:11:08.938Z,99045.31
2019-01-12T09:16:14.536Z,99038.46
2019-01-12T09:21:20.171Z,99035.98
2019-01-12T09:26:25.771Z,99039.89
2019-01-12T09:31:31.697Z,99036.67
2019-01-12T09:36:39.606Z,99031.80
2019-01-12T09:41:46.601Z,99006.75
2019-01-12T09:46:52.967Z,99004.76
2019-01-12T09:52:08.049Z,99002.01
2019-01-12T09:57:14.006Z,98997.41
2019-01-12T10:02:22.483Z,98985.20
2019-01-12T10:07:28.142Z,98979.03
2019-01-12T10:12:33.974Z,98967.88
2019-01-12T10:17:42.082Z,98957.91
2019-01-12T10:22:48.168Z,98951.51
2019-01-12T10:27:53.756Z,98946.23
2019-01-12T10:32:59.369Z,98923.63
2019-01-12T10:38:05.818Z,98948.12
2019-01-12T10:43:11.547Z,98940.25
2019-01-12T10:48:17.178Z,98940.23
2019-01-12T10:53:23.006Z,98941.03
2019-01-12T10:58:28.653Z,98924.29
2019-01-12T11:04:48.486Z,98922.88
2019-01-12T11:09:54.139Z,98918.39
2019-01-12T11:15:01.634Z,98901.19
2019-01-12T11:20:10.892Z,98882.84
2019-01-12T11:25:16.819Z,98883.02
2019-01-12T11:30:22.525Z,98874.11
2019-01-12T11:35:28.156Z,98862.73
2019-01-12T11:40:33.908Z,98868.13
2019-01-12T11:45:39.916Z,98857.55
2019-01-12T11:50:45.634Z,98841.25
2019-01-12T11:55:51.284Z,98836.82
2019-01-12T12:00:59.117Z,98825.35
2019-01-12T12:06:08.133Z,98824.64
2019-01-12T12:11:14.173Z,98816.38
2019-01-12T12:16:20.357Z,98803.63
2019-01-12T12:21:27.734Z,98794.75
2019-01-12T12:26:33.491Z,98784.48
2019-01-12T12:31:39.130Z,98770.79
2019-01-12T12:36:46.558Z,98768.34
2019-01-12T12:41:52.311Z,98753.92
2019-01-12T12:47:00.741Z,98742.45
2019-01-12T12:52:07.212Z,98744.28
2019-01-12T12:57:13.216Z,98718.89
2019-01-12T13:02:20.498Z,98724.22
2019-01-12T13:07:26.651Z,98708.44
2019-01-12T13:12:32.923Z,98705.28
2019-01-12T13:17:38.623Z,98700.88
2019-01-12T13:22:44.396Z,98700.16
2019-01-12T13:27:50.553Z,98681.95
2019-01-12T13:32:56.344Z,98685.03
2019-01-12T13:38:04.606Z,98679.81
2019-01-12T13:43:10.334Z,98656.16
2019-01-12T13:48:16.145Z,98637.78
2019-01-12T13:53:21.812Z,98607.97
2019-01-12T13:58:31.029Z,98597.38
2019-01-12T14:03:39.103Z,98573.70
2019-01-12T14:08:45.188Z,98592.22
2019-01-12T14:13:51.180Z,98602.52
2019-01-12T14:18:57.191Z,98603.99
2019-01-12T14:24:05.436Z,98584.70
2019-01-12T14:29:13.203Z,98596.51
2019-01-12T14:34:20.659Z,98599.88
2019-01-12T14:39:26.409Z,98586.29
2019-01-12T14:44:33.937Z,98575.84
2019-01-12T14:49:40.909Z,98567.25
2019-01-12T14:54:47.058Z,98545.81
2019-01-12T14:59:52.708Z,98538.22
2019-01-12T15:05:00.453Z,98532.05
2019-01-12T15:10:10.839Z,98523.27
2019-01-12T15:15:16.826Z,98520.70
2019-01-12T15:20:24.920Z,98519.04
2019-01-12T15:25:33.154Z,98511.79
2019-01-12T15:30:39.220Z,98514.07
2019-01-12T15:35:45.787Z,98510.48
2019-01-12T15:40:51.815Z,98501.45
2019-01-12T15:45:59.742Z,98494.25
2019-01-12T15:51:09.356Z,98488.15
2019-01-12T15:56:15.777Z,98484.05
2019-01-12T16:01:29.128Z,98474.03
2019-01-12T16:06:34.920Z,98449.89
2019-01-12T16:11:44.284Z,98448.16
2019-01-12T16:16:50.299Z,98433.33
2019-01-12T16:21:56.184Z,98424.67
2019-01-12T16:27:04.727Z,98423.16
2019-01-12T16:32:11.607Z,98422.47
2019-01-12T16:37:17.705Z,98402.46
2019-01-12T16:42:23.492Z,98406.78
2019-01-12T16:47:29.205Z,98391.80
2019-01-12T16:52:36.544Z,98377.70
2019-01-12T16:57:42.469Z,98361.78
2019-01-12T17:02:51.746Z,98359.81
2019-01-12T17:07:57.880Z,98338.89
2019-01-12T17:13:03.724Z,98325.25
2019-01-12T17:18:10.961Z,98321.88
2019-01-12T17:23:16.752Z,98315.25
2019-01-12T17:28:22.529Z,98323.89
2019-01-12T17:33:29.880Z,98302.67
2019-01-12T17:38:35.583Z,98289.39
2019-01-12T17:43:42.404Z,98281.17
2019-01-12T17:48:50.028Z,98282.36
2019-01-12T17:53:55.818Z,98291.52
2019-01-12T17:59:03.366Z,98274.45
2019-01-12T18:04:11.304Z,98272.81
2019-01-12T18:09:17.546Z,98271.84
2019-01-12T18:14:23.986Z,98257.71
2019-01-12T18:19:30.028Z,98262.67
2019-01-12T18:24:36.163Z,98250.97
2019-01-12T18:29:41.978Z,98253.30
2019-01-12T18:34:47.728Z,98260.27
2019-01-12T18:39:54.569Z,98242.78
2019-01-12T18:45:00.285Z,98242.70
2019-01-12T18:50:11.606Z,98252.47
2019-01-12T18:55:17.724Z,98243.44
2019-01-12T19:00:28.662Z,98228.05
2019-01-12T19:05:35.534Z,98228.20
2019-01-12T19:10:42.149Z,98233.57
2019-01-12T19:15:48.897Z,98216.10
2019-01-12T19:20:56.441Z,98223.48
2019-01-12T19:26:07.206Z,98211.00
2019-01-12T19:31:12.920Z,98208.58
2019-01-12T19:36:19.677Z,98219.38
2019-01-12T19:41:28.717Z,98223.38
2019-01-12T19:46:36.903Z,98229.92
2019-01-12T19:51:42.698Z,98232.47
2019-01-12T19:56:48.563Z,98231.88
2019-01-12T20:01:56.816Z,98219.38
2019-01-12T20:07:05.611Z,98222.30
2019-01-12T20:12:12.979Z,98218.40
2019-01-12T20:17:18.722Z,98205.58
2019-01-12T20:22:25.447Z,98216.86
2019-01-12T20:27:33.731Z,98215.41
2019-01-12T20:33:17.610Z,98228.80
2019-01-12T20:38:37.964Z,98217.72
2019-01-12T20:44:06.788Z,98218.03
2019-01-12T20:49:44.565Z,98196.36
2019-01-12T20:55:31.312Z,98189.73
2019-01-12T21:01:10.804Z,98194.67
2019-01-12T21:06:49.262Z,98183.30
2019-01-12T21:12:46.642Z,98180.08
2019-01-12T21:17:52.404Z,98167.95
2019-01-12T21:22:58.191Z,98169.41
2019-01-12T21:28:04.988Z,98158.45
2019-01-12T21:33:10.796Z,98141.08
2019-01-12T21:38:16.566Z,98153.55
2019-01-12T21:43:22.654Z,98145.57
2019-01-12T21:48:29.664Z,98131.53
2019-01-12T21:53:36.577Z,98126.28
2019-01-12T21:58:42.354Z,98110.19
2019-01-12T22:03:48.654Z,98116.64
2019-01-12T22:08:55.598Z,98108.39
2019-01-12T22:14:03.720Z,98101.73
2019-01-12T22:19:10.222Z,98109.02
2019-01-12T22:24:15.934Z,98106.09
2019-01-12T22:29:21.590Z,98095.98
2019-01-12T22:34:28.279Z,98098.04
2019-01-12T22:39:34.284Z,98098.64
2019-01-12T22:44:40.248Z,98097.56
2019-01-12T22:49:46.291Z,98099.12
2019-01-12T22:54:51.984Z,98089.33
2019-01-12T22:59:58.301Z,98082.06
2019-01-12T23:05:06.762Z,98088.61
2019-01-12T23:10:12.691Z,98094.42
2019-01-12T23:15:18.304Z,98087.45
2019-01-12T23:20:23.951Z,98079.05
2019-01-12T23:25:29.586Z,98092.50
2019-01-12T23:30:35.212Z,98091.04
2019-01-12T23:35:41.486Z,98088.25
2019-01-12T23:40:47.456Z,98083.28
2019-01-12T23:45:53.427Z,98086.20
2019-01-12T23:57:00.539Z,98084.27
